sensor_id;sensor_type;location;lat;lon;timestamp;P1;durP1;ratioP1;P2;durP2;ratioP2
76589;SDS011;65471;55.908;37.880;2023-06-26T00:02:17;28.75;;;16.95;;
76589;SDS011;65471;55.908;37.880;2023-06-26T00:04:44;24.60;;;15.73;;
76589;SDS011;65471;55.908;37.880;2023-06-26T00:07:11;33.97;;;16.77;;
76589;SDS011;65471;55.908;37.880;2023-06-26T00:09:38;38.28;;;17.08;;
76589;SDS011;65471;55.908;37.880;2023-06-26T00:12:05;26.90;;;16.90;;
76589;SDS011;65471;55.908;37.880;2023-06-26T00:14:32;29.20;;;17.10;;
76589;SDS011;65471;55.908;37.880;2023-06-26T00:16:59;30.95;;;15.90;;
76589;SDS011;65471;55.908;37.880;2023-06-26T00:19:25;33.47;;;17.65;;
76589;SDS011;65471;55.908;37.880;2023-06-26T00:21:52;32.85;;;16.88;;
76589;SDS011;65471;55.908;37.880;2023-06-26T00:24:19;30.13;;;18.25;;
76589;SDS011;65471;55.908;37.880;2023-06-26T00:26:46;29.38;;;17.85;;
76589;SDS011;65471;55.908;37.880;2023-06-26T00:29:14;27.75;;;16.20;;
76589;SDS011;65471;55.908;37.880;2023-06-26T00:31:41;26.95;;;17.33;;
76589;SDS011;65471;55.908;37.880;2023-06-26T00:34:08;36.55;;;16.98;;
76589;SDS011;65471;55.908;37.880;2023-06-26T00:36:35;27.85;;;16.42;;
76589;SDS011;65471;55.908;37.880;2023-06-26T00:39:02;30.73;;;17.13;;
76589;SDS011;65471;55.908;37.880;2023-06-26T00:41:29;38.70;;;18.23;;
76589;SDS011;65471;55.908;37.880;2023-06-26T00:43:56;30.15;;;17.75;;
76589;SDS011;65471;55.908;37.880;2023-06-26T00:46:23;36.42;;;17.15;;
76589;SDS011;65471;55.908;37.880;2023-06-26T00:48:51;34.03;;;16.70;;
76589;SDS011;65471;55.908;37.880;2023-06-26T00:51:19;28.63;;;17.23;;
76589;SDS011;65471;55.908;37.880;2023-06-26T00:53:46;30.20;;;17.10;;
76589;SDS011;65471;55.908;37.880;2023-06-26T00:56:14;33.95;;;17.30;;
76589;SDS011;65471;55.908;37.880;2023-06-26T00:58:41;32.20;;;17.52;;
76589;SDS011;65471;55.908;37.880;2023-06-26T01:01:08;29.85;;;17.33;;
76589;SDS011;65471;55.908;37.880;2023-06-26T01:03:40;31.50;;;16.20;;
76589;SDS011;65471;55.908;37.880;2023-06-26T01:06:07;35.45;;;17.10;;
76589;SDS011;65471;55.908;37.880;2023-06-26T01:08:41;32.33;;;16.73;;
76589;SDS011;65471;55.908;37.880;2023-06-26T01:11:09;31.98;;;16.92;;
76589;SDS011;65471;55.908;37.880;2023-06-26T01:13:36;31.85;;;17.33;;
76589;SDS011;65471;55.908;37.880;2023-06-26T01:16:04;28.90;;;16.35;;
76589;SDS011;65471;55.908;37.880;2023-06-26T01:18:32;39.20;;;17.92;;
76589;SDS011;65471;55.908;37.880;2023-06-26T01:21:00;26.88;;;15.55;;
76589;SDS011;65471;55.908;37.880;2023-06-26T01:23:35;28.60;;;16.63;;
76589;SDS011;65471;55.908;37.880;2023-06-26T01:26:19;29.88;;;16.10;;
76589;SDS011;65471;55.908;37.880;2023-06-26T01:28:48;26.52;;;17.25;;
76589;SDS011;65471;55.908;37.880;2023-06-26T01:31:16;33.33;;;16.52;;
76589;SDS011;65471;55.908;37.880;2023-06-26T01:36:12;32.33;;;17.00;;
76589;SDS011;65471;55.908;37.880;2023-06-26T01:38:40;32.92;;;16.08;;
76589;SDS011;65471;55.908;37.880;2023-06-26T01:41:07;29.95;;;16.77;;
76589;SDS011;65471;55.908;37.880;2023-06-26T01:43:52;32.00;;;17.40;;
76589;SDS011;65471;55.908;37.880;2023-06-26T01:46:31;22.10;;;16.20;;
76589;SDS011;65471;55.908;37.880;2023-06-26T01:49:15;30.33;;;15.77;;
76589;SDS011;65471;55.908;37.880;2023-06-26T01:52:03;33.00;;;16.25;;
76589;SDS011;65471;55.908;37.880;2023-06-26T01:54:33;32.53;;;16.48;;
76589;SDS011;65471;55.908;37.880;2023-06-26T01:57:08;29.98;;;17.23;;
76589;SDS011;65471;55.908;37.880;2023-06-26T01:59:36;28.98;;;16.67;;
76589;SDS011;65471;55.908;37.880;2023-06-26T02:02:08;27.83;;;15.82;;
76589;SDS011;65471;55.908;37.880;2023-06-26T02:04:35;25.95;;;16.40;;
76589;SDS011;65471;55.908;37.880;2023-06-26T02:07:02;29.48;;;16.13;;
76589;SDS011;65471;55.908;37.880;2023-06-26T02:09:28;26.05;;;15.95;;
76589;SDS011;65471;55.908;37.880;2023-06-26T02:11:56;27.48;;;15.73;;
76589;SDS011;65471;55.908;37.880;2023-06-26T02:14:23;23.77;;;16.17;;
76589;SDS011;65471;55.908;37.880;2023-06-26T02:16:50;29.08;;;16.23;;
76589;SDS011;65471;55.908;37.880;2023-06-26T02:19:17;22.67;;;15.27;;
76589;SDS011;65471;55.908;37.880;2023-06-26T02:22:08;30.13;;;15.57;;
76589;SDS011;65471;55.908;37.880;2023-06-26T02:24:34;28.65;;;16.38;;
76589;SDS011;65471;55.908;37.880;2023-06-26T02:27:01;35.00;;;17.00;;
76589;SDS011;65471;55.908;37.880;2023-06-26T02:29:28;34.40;;;15.85;;
76589;SDS011;65471;55.908;37.880;2023-06-26T02:31:55;26.60;;;15.27;;
76589;SDS011;65471;55.908;37.880;2023-06-26T02:34:22;26.15;;;16.50;;
76589;SDS011;65471;55.908;37.880;2023-06-26T02:36:48;28.98;;;15.32;;
76589;SDS011;65471;55.908;37.880;2023-06-26T02:39:15;23.83;;;15.63;;
76589;SDS011;65471;55.908;37.880;2023-06-26T02:41:42;25.35;;;15.35;;
76589;SDS011;65471;55.908;37.880;2023-06-26T02:44:10;30.40;;;15.93;;
76589;SDS011;65471;55.908;37.880;2023-06-26T02:46:38;26.73;;;15.48;;
76589;SDS011;65471;55.908;37.880;2023-06-26T02:49:05;39.30;;;16.05;;
76589;SDS011;65471;55.908;37.880;2023-06-26T02:51:32;31.77;;;16.10;;
76589;SDS011;65471;55.908;37.880;2023-06-26T02:54:00;24.70;;;15.87;;
76589;SDS011;65471;55.908;37.880;2023-06-26T02:56:27;26.08;;;15.90;;
76589;SDS011;65471;55.908;37.880;2023-06-26T02:58:55;26.10;;;15.73;;
76589;SDS011;65471;55.908;37.880;2023-06-26T03:01:22;24.80;;;15.65;;
76589;SDS011;65471;55.908;37.880;2023-06-26T03:03:49;25.23;;;16.00;;
76589;SDS011;65471;55.908;37.880;2023-06-26T03:06:16;28.85;;;15.70;;
76589;SDS011;65471;55.908;37.880;2023-06-26T03:08:43;24.02;;;16.02;;
76589;SDS011;65471;55.908;37.880;2023-06-26T03:11:10;27.38;;;15.35;;
76589;SDS011;65471;55.908;37.880;2023-06-26T03:13:37;22.52;;;15.57;;
76589;SDS011;65471;55.908;37.880;2023-06-26T03:16:04;21.08;;;15.50;;
76589;SDS011;65471;55.908;37.880;2023-06-26T03:18:31;31.98;;;16.23;;
76589;SDS011;65471;55.908;37.880;2023-06-26T03:20:58;21.60;;;15.52;;
76589;SDS011;65471;55.908;37.880;2023-06-26T03:23:26;20.52;;;15.13;;
76589;SDS011;65471;55.908;37.880;2023-06-26T03:25:53;25.70;;;16.05;;
76589;SDS011;65471;55.908;37.880;2023-06-26T03:28:20;24.58;;;14.52;;
76589;SDS011;65471;55.908;37.880;2023-06-26T03:30:47;26.08;;;16.23;;
76589;SDS011;65471;55.908;37.880;2023-06-26T03:33:14;20.10;;;14.88;;
76589;SDS011;65471;55.908;37.880;2023-06-26T03:35:40;23.42;;;14.82;;
76589;SDS011;65471;55.908;37.880;2023-06-26T03:38:07;27.20;;;15.15;;
76589;SDS011;65471;55.908;37.880;2023-06-26T03:40:34;25.67;;;15.35;;
76589;SDS011;65471;55.908;37.880;2023-06-26T03:43:01;25.40;;;14.77;;
76589;SDS011;65471;55.908;37.880;2023-06-26T03:45:29;30.27;;;15.20;;
76589;SDS011;65471;55.908;37.880;2023-06-26T03:47:57;32.67;;;15.98;;
76589;SDS011;65471;55.908;37.880;2023-06-26T03:50:24;27.67;;;14.93;;
76589;SDS011;65471;55.908;37.880;2023-06-26T03:52:51;32.33;;;14.88;;
76589;SDS011;65471;55.908;37.880;2023-06-26T03:55:20;31.60;;;15.70;;
76589;SDS011;65471;55.908;37.880;2023-06-26T03:57:49;26.77;;;14.57;;
76589;SDS011;65471;55.908;37.880;2023-06-26T04:00:16;24.13;;;15.00;;
76589;SDS011;65471;55.908;37.880;2023-06-26T04:02:43;24.70;;;15.93;;
76589;SDS011;65471;55.908;37.880;2023-06-26T04:05:10;25.20;;;15.40;;
76589;SDS011;65471;55.908;37.880;2023-06-26T04:07:37;23.05;;;14.40;;
76589;SDS011;65471;55.908;37.880;2023-06-26T04:10:05;38.88;;;15.38;;
76589;SDS011;65471;55.908;37.880;2023-06-26T04:12:32;23.73;;;13.80;;
76589;SDS011;65471;55.908;37.880;2023-06-26T04:14:59;32.95;;;14.65;;
76589;SDS011;65471;55.908;37.880;2023-06-26T04:17:26;32.97;;;14.05;;
76589;SDS011;65471;55.908;37.880;2023-06-26T04:19:53;26.27;;;14.68;;
76589;SDS011;65471;55.908;37.880;2023-06-26T04:22:20;34.20;;;14.00;;
76589;SDS011;65471;55.908;37.880;2023-06-26T04:24:47;23.73;;;14.73;;
76589;SDS011;65471;55.908;37.880;2023-06-26T04:27:13;27.17;;;14.50;;
76589;SDS011;65471;55.908;37.880;2023-06-26T04:29:40;30.27;;;14.90;;
76589;SDS011;65471;55.908;37.880;2023-06-26T04:32:07;29.35;;;14.45;;
76589;SDS011;65471;55.908;37.880;2023-06-26T04:34:34;38.58;;;14.80;;
76589;SDS011;65471;55.908;37.880;2023-06-26T04:37:02;23.27;;;14.40;;
76589;SDS011;65471;55.908;37.880;2023-06-26T04:39:32;27.80;;;15.18;;
76589;SDS011;65471;55.908;37.880;2023-06-26T04:41:59;29.25;;;14.15;;
76589;SDS011;65471;55.908;37.880;2023-06-26T04:44:26;31.67;;;15.07;;
76589;SDS011;65471;55.908;37.880;2023-06-26T04:46:53;30.65;;;13.27;;
76589;SDS011;65471;55.908;37.880;2023-06-26T04:49:19;49.60;;;14.43;;
76589;SDS011;65471;55.908;37.880;2023-06-26T04:51:46;35.63;;;14.45;;
76589;SDS011;65471;55.908;37.880;2023-06-26T04:54:15;37.72;;;12.10;;
76589;SDS011;65471;55.908;37.880;2023-06-26T04:56:41;21.05;;;12.27;;
76589;SDS011;65471;55.908;37.880;2023-06-26T04:59:10;34.67;;;12.82;;
76589;SDS011;65471;55.908;37.880;2023-06-26T05:01:42;38.60;;;13.70;;
76589;SDS011;65471;55.908;37.880;2023-06-26T05:04:10;33.40;;;11.90;;
76589;SDS011;65471;55.908;37.880;2023-06-26T05:06:36;37.17;;;12.90;;
76589;SDS011;65471;55.908;37.880;2023-06-26T05:09:03;30.05;;;12.55;;
76589;SDS011;65471;55.908;37.880;2023-06-26T05:11:30;35.08;;;12.55;;
76589;SDS011;65471;55.908;37.880;2023-06-26T05:13:57;45.13;;;12.57;;
76589;SDS011;65471;55.908;37.880;2023-06-26T05:16:24;23.55;;;11.85;;
76589;SDS011;65471;55.908;37.880;2023-06-26T05:18:51;32.80;;;11.38;;
76589;SDS011;65471;55.908;37.880;2023-06-26T05:21:18;31.40;;;11.07;;
76589;SDS011;65471;55.908;37.880;2023-06-26T05:23:45;33.08;;;10.15;;
76589;SDS011;65471;55.908;37.880;2023-06-26T05:26:13;25.02;;;9.38;;
76589;SDS011;65471;55.908;37.880;2023-06-26T05:28:40;28.25;;;9.80;;
76589;SDS011;65471;55.908;37.880;2023-06-26T05:31:07;25.58;;;9.93;;
76589;SDS011;65471;55.908;37.880;2023-06-26T05:33:35;21.70;;;10.48;;
76589;SDS011;65471;55.908;37.880;2023-06-26T05:36:05;103.47;;;12.40;;
76589;SDS011;65471;55.908;37.880;2023-06-26T05:38:35;29.05;;;10.15;;
76589;SDS011;65471;55.908;37.880;2023-06-26T05:41:02;31.02;;;10.75;;
76589;SDS011;65471;55.908;37.880;2023-06-26T05:43:29;12.57;;;9.43;;
76589;SDS011;65471;55.908;37.880;2023-06-26T05:45:56;16.45;;;10.23;;
76589;SDS011;65471;55.908;37.880;2023-06-26T05:48:24;14.10;;;10.05;;
76589;SDS011;65471;55.908;37.880;2023-06-26T05:50:51;20.90;;;10.48;;
76589;SDS011;65471;55.908;37.880;2023-06-26T05:53:18;20.00;;;9.50;;
76589;SDS011;65471;55.908;37.880;2023-06-26T05:55:45;27.13;;;9.15;;
76589;SDS011;65471;55.908;37.880;2023-06-26T05:58:12;25.85;;;9.82;;
76589;SDS011;65471;55.908;37.880;2023-06-26T06:00:40;17.65;;;10.77;;
76589;SDS011;65471;55.908;37.880;2023-06-26T06:03:09;16.10;;;9.70;;
76589;SDS011;65471;55.908;37.880;2023-06-26T06:05:37;14.02;;;10.20;;
76589;SDS011;65471;55.908;37.880;2023-06-26T06:08:04;13.00;;;9.68;;
76589;SDS011;65471;55.908;37.880;2023-06-26T06:10:31;17.20;;;9.77;;
76589;SDS011;65471;55.908;37.880;2023-06-26T06:12:57;18.83;;;9.60;;
76589;SDS011;65471;55.908;37.880;2023-06-26T06:15:24;16.05;;;9.60;;
76589;SDS011;65471;55.908;37.880;2023-06-26T06:17:53;63.30;;;9.73;;
76589;SDS011;65471;55.908;37.880;2023-06-26T06:20:20;13.60;;;9.35;;
76589;SDS011;65471;55.908;37.880;2023-06-26T06:22:47;16.60;;;9.27;;
76589;SDS011;65471;55.908;37.880;2023-06-26T06:25:15;19.42;;;9.15;;
76589;SDS011;65471;55.908;37.880;2023-06-26T06:27:42;19.05;;;9.75;;
76589;SDS011;65471;55.908;37.880;2023-06-26T06:30:09;32.20;;;10.20;;
76589;SDS011;65471;55.908;37.880;2023-06-26T06:32:37;17.40;;;10.00;;
76589;SDS011;65471;55.908;37.880;2023-06-26T06:35:04;19.42;;;9.93;;
76589;SDS011;65471;55.908;37.880;2023-06-26T06:37:37;14.35;;;9.85;;
76589;SDS011;65471;55.908;37.880;2023-06-26T06:40:05;13.43;;;9.75;;
76589;SDS011;65471;55.908;37.880;2023-06-26T06:42:33;19.25;;;10.35;;
76589;SDS011;65471;55.908;37.880;2023-06-26T06:45:01;18.88;;;9.88;;
76589;SDS011;65471;55.908;37.880;2023-06-26T06:47:29;14.38;;;9.15;;
76589;SDS011;65471;55.908;37.880;2023-06-26T06:49:57;23.10;;;9.25;;
76589;SDS011;65471;55.908;37.880;2023-06-26T06:52:24;14.52;;;9.05;;
76589;SDS011;65471;55.908;37.880;2023-06-26T06:54:51;22.27;;;9.23;;
76589;SDS011;65471;55.908;37.880;2023-06-26T06:57:25;12.55;;;8.20;;
76589;SDS011;65471;55.908;37.880;2023-06-26T06:59:51;13.88;;;8.60;;
76589;SDS011;65471;55.908;37.880;2023-06-26T07:02:18;12.80;;;8.50;;
76589;SDS011;65471;55.908;37.880;2023-06-26T07:04:45;17.20;;;8.65;;
76589;SDS011;65471;55.908;37.880;2023-06-26T07:07:12;12.88;;;8.93;;
76589;SDS011;65471;55.908;37.880;2023-06-26T07:09:42;9.95;;;8.95;;
76589;SDS011;65471;55.908;37.880;2023-06-26T07:12:09;15.48;;;9.35;;
76589;SDS011;65471;55.908;37.880;2023-06-26T07:14:36;14.35;;;8.82;;
76589;SDS011;65471;55.908;37.880;2023-06-26T07:17:03;15.40;;;8.70;;
76589;SDS011;65471;55.908;37.880;2023-06-26T07:19:30;12.98;;;9.07;;
76589;SDS011;65471;55.908;37.880;2023-06-26T07:21:57;11.25;;;9.20;;
76589;SDS011;65471;55.908;37.880;2023-06-26T07:24:23;15.75;;;9.30;;
76589;SDS011;65471;55.908;37.880;2023-06-26T07:26:50;11.23;;;8.57;;
76589;SDS011;65471;55.908;37.880;2023-06-26T07:29:17;16.02;;;9.50;;
76589;SDS011;65471;55.908;37.880;2023-06-26T07:31:44;10.85;;;9.02;;
76589;SDS011;65471;55.908;37.880;2023-06-26T07:34:12;12.98;;;9.60;;
76589;SDS011;65471;55.908;37.880;2023-06-26T07:36:39;27.55;;;8.35;;
76589;SDS011;65471;55.908;37.880;2023-06-26T07:39:05;23.30;;;8.68;;
76589;SDS011;65471;55.908;37.880;2023-06-26T07:41:32;17.45;;;9.13;;
76589;SDS011;65471;55.908;37.880;2023-06-26T07:43:59;19.08;;;8.43;;
76589;SDS011;65471;55.908;37.880;2023-06-26T07:46:26;20.33;;;8.80;;
76589;SDS011;65471;55.908;37.880;2023-06-26T07:48:53;10.65;;;8.43;;
76589;SDS011;65471;55.908;37.880;2023-06-26T07:51:20;16.77;;;8.27;;
76589;SDS011;65471;55.908;37.880;2023-06-26T07:53:48;20.17;;;8.80;;
76589;SDS011;65471;55.908;37.880;2023-06-26T07:56:14;9.20;;;8.35;;
76589;SDS011;65471;55.908;37.880;2023-06-26T07:58:41;48.70;;;9.40;;
76589;SDS011;65471;55.908;37.880;2023-06-26T08:01:08;32.22;;;8.60;;
76589;SDS011;65471;55.908;37.880;2023-06-26T08:03:35;9.45;;;8.45;;
76589;SDS011;65471;55.908;37.880;2023-06-26T08:06:02;12.40;;;8.43;;
76589;SDS011;65471;55.908;37.880;2023-06-26T08:08:29;15.73;;;8.50;;
76589;SDS011;65471;55.908;37.880;2023-06-26T08:10:56;29.05;;;9.07;;
76589;SDS011;65471;55.908;37.880;2023-06-26T08:13:23;15.23;;;9.07;;
76589;SDS011;65471;55.908;37.880;2023-06-26T08:15:51;12.80;;;8.77;;
76589;SDS011;65471;55.908;37.880;2023-06-26T08:18:18;13.38;;;9.55;;
76589;SDS011;65471;55.908;37.880;2023-06-26T08:20:45;16.70;;;9.37;;
76589;SDS011;65471;55.908;37.880;2023-06-26T08:23:12;19.35;;;8.27;;
76589;SDS011;65471;55.908;37.880;2023-06-26T08:25:39;23.35;;;8.60;;
76589;SDS011;65471;55.908;37.880;2023-06-26T08:28:05;15.60;;;9.02;;
76589;SDS011;65471;55.908;37.880;2023-06-26T08:30:32;8.32;;;7.72;;
76589;SDS011;65471;55.908;37.880;2023-06-26T08:32:59;9.13;;;8.25;;
76589;SDS011;65471;55.908;37.880;2023-06-26T08:35:26;13.25;;;8.35;;
76589;SDS011;65471;55.908;37.880;2023-06-26T08:37:53;19.02;;;8.65;;
76589;SDS011;65471;55.908;37.880;2023-06-26T08:40:21;11.02;;;8.55;;
76589;SDS011;65471;55.908;37.880;2023-06-26T08:42:50;11.85;;;8.80;;
76589;SDS011;65471;55.908;37.880;2023-06-26T08:45:20;12.50;;;8.20;;
76589;SDS011;65471;55.908;37.880;2023-06-26T08:47:47;10.32;;;8.60;;
76589;SDS011;65471;55.908;37.880;2023-06-26T08:50:18;15.38;;;8.45;;
76589;SDS011;65471;55.908;37.880;2023-06-26T08:52:53;9.52;;;8.35;;
76589;SDS011;65471;55.908;37.880;2023-06-26T08:55:25;11.98;;;8.52;;
76589;SDS011;65471;55.908;37.880;2023-06-26T08:57:54;8.23;;;7.68;;
76589;SDS011;65471;55.908;37.880;2023-06-26T09:00:21;9.95;;;8.00;;
76589;SDS011;65471;55.908;37.880;2023-06-26T09:02:49;18.17;;;8.60;;
76589;SDS011;65471;55.908;37.880;2023-06-26T09:05:16;8.90;;;8.20;;
76589;SDS011;65471;55.908;37.880;2023-06-26T09:07:43;8.73;;;7.97;;
76589;SDS011;65471;55.908;37.880;2023-06-26T09:10:11;11.85;;;7.85;;
76589;SDS011;65471;55.908;37.880;2023-06-26T09:12:38;14.10;;;8.80;;
76589;SDS011;65471;55.908;37.880;2023-06-26T09:15:06;11.40;;;7.72;;
76589;SDS011;65471;55.908;37.880;2023-06-26T09:17:38;27.00;;;8.73;;
76589;SDS011;65471;55.908;37.880;2023-06-26T09:20:09;11.07;;;8.00;;
76589;SDS011;65471;55.908;37.880;2023-06-26T09:22:40;8.82;;;8.10;;
76589;SDS011;65471;55.908;37.880;2023-06-26T09:25:09;25.15;;;8.13;;
76589;SDS011;65471;55.908;37.880;2023-06-26T09:27:36;9.50;;;8.27;;
76589;SDS011;65471;55.908;37.880;2023-06-26T09:30:03;27.20;;;9.00;;
76589;SDS011;65471;55.908;37.880;2023-06-26T09:32:36;36.17;;;9.35;;
76589;SDS011;65471;55.908;37.880;2023-06-26T09:35:03;10.02;;;8.95;;
76589;SDS011;65471;55.908;37.880;2023-06-26T09:37:31;18.30;;;9.00;;
76589;SDS011;65471;55.908;37.880;2023-06-26T09:39:59;9.90;;;8.82;;
76589;SDS011;65471;55.908;37.880;2023-06-26T09:42:25;10.55;;;8.23;;
76589;SDS011;65471;55.908;37.880;2023-06-26T09:44:52;8.57;;;7.88;;
76589;SDS011;65471;55.908;37.880;2023-06-26T09:47:21;9.38;;;8.52;;
76589;SDS011;65471;55.908;37.880;2023-06-26T09:49:51;8.18;;;7.45;;
76589;SDS011;65471;55.908;37.880;2023-06-26T09:52:19;11.52;;;8.38;;
76589;SDS011;65471;55.908;37.880;2023-06-26T09:54:46;15.18;;;8.43;;
76589;SDS011;65471;55.908;37.880;2023-06-26T09:57:13;17.50;;;8.25;;
76589;SDS011;65471;55.908;37.880;2023-06-26T09:59:42;9.25;;;8.45;;
76589;SDS011;65471;55.908;37.880;2023-06-26T10:02:11;21.55;;;10.77;;
76589;SDS011;65471;55.908;37.880;2023-06-26T10:04:39;11.80;;;9.80;;
76589;SDS011;65471;55.908;37.880;2023-06-26T10:07:11;17.65;;;9.48;;
76589;SDS011;65471;55.908;37.880;2023-06-26T10:09:40;16.65;;;10.35;;
76589;SDS011;65471;55.908;37.880;2023-06-26T10:12:18;17.20;;;10.48;;
76589;SDS011;65471;55.908;37.880;2023-06-26T10:14:52;15.25;;;9.50;;
76589;SDS011;65471;55.908;37.880;2023-06-26T10:17:22;8.95;;;8.20;;
76589;SDS011;65471;55.908;37.880;2023-06-26T10:19:55;9.18;;;8.38;;
76589;SDS011;65471;55.908;37.880;2023-06-26T10:22:31;16.45;;;8.90;;
76589;SDS011;65471;55.908;37.880;2023-06-26T10:25:02;15.25;;;8.27;;
76589;SDS011;65471;55.908;37.880;2023-06-26T10:27:35;9.30;;;8.50;;
76589;SDS011;65471;55.908;37.880;2023-06-26T10:30:06;14.27;;;8.98;;
76589;SDS011;65471;55.908;37.880;2023-06-26T10:32:37;12.57;;;8.68;;
76589;SDS011;65471;55.908;37.880;2023-06-26T10:35:06;15.25;;;9.52;;
76589;SDS011;65471;55.908;37.880;2023-06-26T10:37:40;14.55;;;8.90;;
76589;SDS011;65471;55.908;37.880;2023-06-26T10:40:09;56.33;;;9.80;;
76589;SDS011;65471;55.908;37.880;2023-06-26T10:42:37;8.65;;;7.95;;
76589;SDS011;65471;55.908;37.880;2023-06-26T10:45:08;9.23;;;8.43;;
76589;SDS011;65471;55.908;37.880;2023-06-26T10:47:41;10.32;;;7.85;;
76589;SDS011;65471;55.908;37.880;2023-06-26T10:53:08;18.38;;;8.48;;
76589;SDS011;65471;55.908;37.880;2023-06-26T10:55:36;17.58;;;8.80;;
76589;SDS011;65471;55.908;37.880;2023-06-26T10:58:03;15.20;;;8.50;;
76589;SDS011;65471;55.908;37.880;2023-06-26T11:00:30;24.73;;;8.45;;
76589;SDS011;65471;55.908;37.880;2023-06-26T11:02:57;20.20;;;9.13;;
76589;SDS011;65471;55.908;37.880;2023-06-26T11:05:28;38.95;;;9.70;;
76589;SDS011;65471;55.908;37.880;2023-06-26T11:10:52;22.33;;;7.13;;
76589;SDS011;65471;55.908;37.880;2023-06-26T11:13:20;6.82;;;5.95;;
76589;SDS011;65471;55.908;37.880;2023-06-26T11:15:48;8.05;;;6.70;;
76589;SDS011;65471;55.908;37.880;2023-06-26T11:18:16;13.15;;;7.22;;
76589;SDS011;65471;55.908;37.880;2023-06-26T11:20:43;8.38;;;7.63;;
76589;SDS011;65471;55.908;37.880;2023-06-26T11:23:10;11.30;;;7.40;;
76589;SDS011;65471;55.908;37.880;2023-06-26T11:25:38;9.82;;;7.28;;
76589;SDS011;65471;55.908;37.880;2023-06-26T11:28:05;8.02;;;7.00;;
76589;SDS011;65471;55.908;37.880;2023-06-26T11:30:32;9.10;;;7.93;;
76589;SDS011;65471;55.908;37.880;2023-06-26T11:33:09;9.57;;;8.13;;
76589;SDS011;65471;55.908;37.880;2023-06-26T11:35:36;10.90;;;7.63;;
76589;SDS011;65471;55.908;37.880;2023-06-26T11:38:05;17.02;;;9.18;;
76589;SDS011;65471;55.908;37.880;2023-06-26T11:40:35;90.68;;;14.77;;
76589;SDS011;65471;55.908;37.880;2023-06-26T11:43:03;125.10;;;13.20;;
76589;SDS011;65471;55.908;37.880;2023-06-26T11:45:31;23.45;;;8.77;;
76589;SDS011;65471;55.908;37.880;2023-06-26T11:47:58;22.77;;;8.10;;
76589;SDS011;65471;55.908;37.880;2023-06-26T11:50:26;20.98;;;9.10;;
76589;SDS011;65471;55.908;37.880;2023-06-26T11:52:57;16.67;;;8.20;;
76589;SDS011;65471;55.908;37.880;2023-06-26T11:55:25;7.65;;;7.00;;
76589;SDS011;65471;55.908;37.880;2023-06-26T11:57:53;8.52;;;7.57;;
76589;SDS011;65471;55.908;37.880;2023-06-26T12:00:21;7.82;;;7.22;;
76589;SDS011;65471;55.908;37.880;2023-06-26T12:05:16;8.07;;;7.38;;
76589;SDS011;65471;55.908;37.880;2023-06-26T12:07:45;15.07;;;7.43;;
76589;SDS011;65471;55.908;37.880;2023-06-26T12:10:14;7.72;;;6.97;;
76589;SDS011;65471;55.908;37.880;2023-06-26T12:15:10;8.32;;;6.68;;
76589;SDS011;65471;55.908;37.880;2023-06-26T12:17:40;9.50;;;6.85;;
76589;SDS011;65471;55.908;37.880;2023-06-26T12:20:26;8.57;;;7.70;;
76589;SDS011;65471;55.908;37.880;2023-06-26T12:22:53;10.23;;;6.78;;
76589;SDS011;65471;55.908;37.880;2023-06-26T12:25:23;33.42;;;7.32;;
76589;SDS011;65471;55.908;37.880;2023-06-26T12:27:50;8.10;;;7.40;;
76589;SDS011;65471;55.908;37.880;2023-06-26T12:30:17;14.73;;;7.57;;
76589;SDS011;65471;55.908;37.880;2023-06-26T12:32:45;10.45;;;7.70;;
76589;SDS011;65471;55.908;37.880;2023-06-26T12:35:15;14.80;;;6.63;;
76589;SDS011;65471;55.908;37.880;2023-06-26T12:37:43;9.85;;;7.10;;
76589;SDS011;65471;55.908;37.880;2023-06-26T12:40:16;8.98;;;7.63;;
76589;SDS011;65471;55.908;37.880;2023-06-26T12:42:45;28.17;;;7.75;;
76589;SDS011;65471;55.908;37.880;2023-06-26T12:45:12;10.07;;;7.05;;
76589;SDS011;65471;55.908;37.880;2023-06-26T12:48:06;7.72;;;7.03;;
76589;SDS011;65471;55.908;37.880;2023-06-26T12:50:43;12.32;;;7.15;;
76589;SDS011;65471;55.908;37.880;2023-06-26T12:53:11;8.25;;;7.13;;
76589;SDS011;65471;55.908;37.880;2023-06-26T12:55:40;7.78;;;7.00;;
76589;SDS011;65471;55.908;37.880;2023-06-26T12:58:07;15.57;;;7.57;;
76589;SDS011;65471;55.908;37.880;2023-06-26T13:00:36;53.05;;;8.00;;
76589;SDS011;65471;55.908;37.880;2023-06-26T13:03:04;13.93;;;7.55;;
76589;SDS011;65471;55.908;37.880;2023-06-26T13:05:33;8.55;;;7.18;;
76589;SDS011;65471;55.908;37.880;2023-06-26T13:08:00;15.65;;;7.78;;
76589;SDS011;65471;55.908;37.880;2023-06-26T13:10:27;10.63;;;7.57;;
76589;SDS011;65471;55.908;37.880;2023-06-26T13:12:55;11.32;;;7.50;;
76589;SDS011;65471;55.908;37.880;2023-06-26T13:15:22;14.93;;;7.93;;
76589;SDS011;65471;55.908;37.880;2023-06-26T13:17:49;8.82;;;7.53;;
76589;SDS011;65471;55.908;37.880;2023-06-26T13:20:16;9.13;;;8.23;;
76589;SDS011;65471;55.908;37.880;2023-06-26T13:22:43;8.60;;;7.72;;
76589;SDS011;65471;55.908;37.880;2023-06-26T13:25:10;16.60;;;7.68;;
76589;SDS011;65471;55.908;37.880;2023-06-26T13:27:38;14.80;;;7.35;;
76589;SDS011;65471;55.908;37.880;2023-06-26T13:30:05;22.92;;;7.40;;
76589;SDS011;65471;55.908;37.880;2023-06-26T13:32:32;8.73;;;6.75;;
76589;SDS011;65471;55.908;37.880;2023-06-26T13:34:59;8.00;;;7.28;;
76589;SDS011;65471;55.908;37.880;2023-06-26T13:37:26;7.45;;;6.75;;
76589;SDS011;65471;55.908;37.880;2023-06-26T13:39:53;14.48;;;7.22;;
76589;SDS011;65471;55.908;37.880;2023-06-26T13:42:20;8.82;;;6.05;;
76589;SDS011;65471;55.908;37.880;2023-06-26T13:44:47;11.05;;;6.53;;
76589;SDS011;65471;55.908;37.880;2023-06-26T13:47:29;7.47;;;6.40;;
76589;SDS011;65471;55.908;37.880;2023-06-26T13:49:56;18.95;;;7.00;;
76589;SDS011;65471;55.908;37.880;2023-06-26T13:52:23;9.98;;;7.00;;
76589;SDS011;65471;55.908;37.880;2023-06-26T13:54:49;10.95;;;7.15;;
76589;SDS011;65471;55.908;37.880;2023-06-26T13:57:16;7.25;;;6.65;;
76589;SDS011;65471;55.908;37.880;2023-06-26T13:59:43;10.40;;;7.10;;
76589;SDS011;65471;55.908;37.880;2023-06-26T14:02:13;8.52;;;7.25;;
76589;SDS011;65471;55.908;37.880;2023-06-26T14:04:40;7.82;;;7.13;;
76589;SDS011;65471;55.908;37.880;2023-06-26T14:07:08;7.68;;;7.05;;
76589;SDS011;65471;55.908;37.880;2023-06-26T14:09:35;9.98;;;7.20;;
76589;SDS011;65471;55.908;37.880;2023-06-26T14:12:02;10.60;;;8.65;;
76589;SDS011;65471;55.908;37.880;2023-06-26T14:14:29;13.82;;;7.82;;
76589;SDS011;65471;55.908;37.880;2023-06-26T14:16:56;9.85;;;7.50;;
76589;SDS011;65471;55.908;37.880;2023-06-26T14:19:25;9.02;;;8.13;;
76589;SDS011;65471;55.908;37.880;2023-06-26T14:21:52;16.80;;;7.85;;
76589;SDS011;65471;55.908;37.880;2023-06-26T14:24:20;14.83;;;7.83;;
76589;SDS011;65471;55.908;37.880;2023-06-26T14:26:46;16.05;;;8.20;;
76589;SDS011;65471;55.908;37.880;2023-06-26T14:29:13;15.63;;;7.45;;
76589;SDS011;65471;55.908;37.880;2023-06-26T14:31:43;16.80;;;7.63;;
76589;SDS011;65471;55.908;37.880;2023-06-26T14:34:10;12.60;;;7.72;;
76589;SDS011;65471;55.908;37.880;2023-06-26T14:36:37;18.55;;;8.25;;
76589;SDS011;65471;55.908;37.880;2023-06-26T14:39:04;25.67;;;8.60;;